Airfield :
LOGIN :

Register | Disclaimer

   EN    FR    IT 

 










Legend :    VFR   Marginal VFR   IFR   Intensive IFR   Very Intensive IFR
Visi :
Ceiling :
>= 8 km
>= 3000ft
5 to 8 km
1000 to 3000 ft
1500m to 5 km
500 to 1000 ft
800 to 1500m
200 to 500 ft
< 800m
< 200 ft
Symbols :   Thunderstorms  Fog  Heavy snow  Heavy precipitations  Wind > 20 kt
SIGMETs :     Misc.  Thunderstorms  Icing  Turbulence  Mountain Waves  Volcanic Ashes






- Airport Elevation : 197 ft
- IATA code : XOG


LFMO - Orange

CURRENT METAR :
  • 010430Z AUTO 33003KT 280V360 CAVOK 04/M02 Q1020 NOSIG

EXPIRED METARs :
  • 010400Z AUTO 32008KT CAVOK 04/M02 Q1020 NOSIG
  • 010330Z AUTO 29006KT 260V330 CAVOK 04/M02 Q1020 NOSIG
  • 010300Z AUTO 33006KT 290V010 CAVOK 05/M03 Q1021 NOSIG
  • 010230Z AUTO 35011KT CAVOK 04/M02 Q1021 NOSIG
  • 010200Z AUTO 32013G25KT CAVOK 03/M01 Q1021 NOSIG

TAF TAF LFMO
Valid from the 01 at 03:00 until the 02 at 03:00 UTC


010200Z 0103/0203 35012KT CAVOK TX12/0113Z TN00/0104Z
BECMG 0111/0113 35015G30KT
BECMG 0201/0203 35020G40KT



MET'MAP, your aeronautical weather chart ! - Copyright ORBIFLY December 2007 - Disclaimer

ORBIFLY MET'MAP TEAM :

Programming & Development : Alexandra Zaïnal
Concept & original design : Baudouin d'Aumeries
Assistance for programming : Marc-Olivier Méhu
Technical & hardware support : Manuel Goepfert

Contact : metmap@orbifly.com




SOURCES & CREDITS :

   NOAA